Time;durP1;ratioP1;P1;durP2;ratioP2;P2;SDS_P1;SDS_P2;PMS_P1;PMS_P2;Temp;Humidity;BMP_temperature;BMP_pressure;BME280_temperature;BME280_humidity;BME280_pressure;Samples;Min_cycle;Max_cycle;Signal;HPM_P1;HPM_P2
2023/12/20 00:01:01;;;;;;;15.82;2.70;;;4.90;99.90;;;;;;5072257;28;20819;-45
2023/12/20 00:03:27;;;;;;;20.63;3.05;;;5.00;99.90;;;;;;5086175;28;20107;-44
2023/12/20 00:05:52;;;;;;;16.73;2.60;;;5.00;99.90;;;;;;5085921;28;20040;-45
2023/12/20 00:08:18;;;;;;;15.95;2.95;;;5.00;99.90;;;;;;5093435;28;20044;-45
2023/12/20 00:10:44;;;;;;;18.90;2.90;;;5.10;99.90;;;;;;5091750;28;20042;-44
2023/12/20 00:13:10;;;;;;;8.95;2.20;;;5.10;99.90;;;;;;5093243;28;20039;-44
2023/12/20 00:15:36;;;;;;;18.77;2.80;;;4.90;99.90;;;;;;5084992;28;20615;-45
2023/12/20 00:18:02;;;;;;;17.25;2.92;;;5.00;99.90;;;;;;5088087;28;20052;-45
2023/12/20 00:20:28;;;;;;;17.88;3.15;;;5.00;99.90;;;;;;5087449;28;20450;-44
2023/12/20 00:23:00;;;;;;;17.75;2.47;;;5.10;99.90;;;;;;5087459;28;20072;-44
2023/12/20 00:25:26;;;;;;;14.65;3.00;;;5.20;99.90;;;;;;5092564;28;20119;-45
2023/12/20 00:27:52;;;;;;;19.23;2.90;;;5.20;99.90;;;;;;5088959;28;20131;-44
2023/12/20 00:30:18;;;;;;;15.55;2.78;;;5.30;99.90;;;;;;5084311;28;20119;-44
2023/12/20 00:32:46;;;;;;;19.58;3.13;;;5.30;99.90;;;;;;5081738;28;20036;-44
2023/12/20 00:35:15;;;;;;;17.83;2.83;;;5.30;99.90;;;;;;5082277;28;20060;-46
2023/12/20 00:37:42;;;;;;;16.33;2.70;;;5.30;99.90;;;;;;5081925;28;20036;-44
2023/12/20 00:40:08;;;;;;;19.25;2.97;;;5.30;99.90;;;;;;5088612;28;20036;-46
2023/12/20 00:42:34;;;;;;;11.82;2.55;;;5.10;99.90;;;;;;5087548;28;20047;-46
2023/12/20 00:45:00;;;;;;;12.27;2.33;;;5.20;99.90;;;;;;5089976;28;20073;-45
2023/12/20 00:47:26;;;;;;;18.48;2.72;;;5.00;99.90;;;;;;5084004;28;20044;-47
2023/12/20 00:49:52;;;;;;;13.65;2.78;;;5.10;99.90;;;;;;5087033;28;20036;-45
2023/12/20 00:52:18;;;;;;;20.13;2.90;;;;;;;;;;5083550;28;20104;-45
2023/12/20 00:54:44;;;;;;;12.02;2.53;;;4.90;99.90;;;;;;5082594;28;20040;-46
2023/12/20 00:57:10;;;;;;;17.27;2.45;;;4.90;99.90;;;;;;5082038;28;20044;-46
2023/12/20 00:59:35;;;;;;;23.42;2.83;;;4.90;99.90;;;;;;5070342;28;20489;-45
2023/12/20 01:02:01;;;;;;;16.45;3.20;;;4.80;99.90;;;;;;5082468;28;20085;-44
2023/12/20 01:04:27;;;;;;;22.13;3.22;;;4.90;99.90;;;;;;5081572;28;20036;-45
2023/12/20 01:06:53;;;;;;;23.00;3.47;;;4.80;99.90;;;;;;5081490;28;20079;-44
2023/12/20 01:09:19;;;;;;;19.75;3.22;;;4.80;99.90;;;;;;5081702;28;20036;-47
2023/12/20 01:11:46;;;;;;;13.35;3.17;;;4.90;99.90;;;;;;5084746;28;20111;-46
2023/12/20 01:14:12;;;;;;;11.30;2.33;;;4.90;99.90;;;;;;5085166;28;20055;-44
2023/12/20 01:16:38;;;;;;;13.32;2.67;;;4.90;99.90;;;;;;5075966;28;20078;-46
2023/12/20 01:19:03;;;;;;;20.20;2.97;;;4.90;99.90;;;;;;5078403;28;20753;-45
2023/12/20 01:21:29;;;;;;;16.85;3.10;;;4.80;99.90;;;;;;5081800;28;20068;-44
2023/12/20 01:23:55;;;;;;;23.10;2.97;;;4.80;99.90;;;;;;5080354;28;20044;-44
2023/12/20 01:26:20;;;;;;;19.52;3.28;;;4.80;99.90;;;;;;5080243;28;20054;-45
2023/12/20 01:28:46;;;;;;;21.88;3.25;;;4.80;99.90;;;;;;5081602;28;21241;-45
2023/12/20 01:31:11;;;;;;;17.40;2.65;;;4.90;99.90;;;;;;5087816;28;20040;-45
2023/12/20 01:33:37;;;;;;;17.00;2.80;;;5.00;99.90;;;;;;5064443;28;20093;-45
2023/12/20 01:36:03;;;;;;;17.55;2.67;;;5.00;99.90;;;;;;5083454;28;20047;-46
2023/12/20 01:38:29;;;;;;;23.52;3.00;;;5.20;99.90;;;;;;5083106;28;20044;-44
2023/12/20 01:40:55;;;;;;;18.00;3.25;;;5.10;99.90;;;;;;5082702;28;20623;-44
2023/12/20 01:43:20;;;;;;;12.43;2.72;;;5.20;99.90;;;;;;5082629;28;20082;-44
2023/12/20 01:45:47;;;;;;;18.30;3.08;;;5.20;99.90;;;;;;5085654;28;20093;-44
2023/12/20 01:48:15;;;;;;;20.25;3.58;;;5.10;99.90;;;;;;5086016;28;20106;-44
2023/12/20 01:50:41;;;;;;;;;;;5.10;99.90;;;;;;5087617;28;20080;-45
2023/12/20 01:53:09;;;;;;;23.70;3.15;;;5.10;99.90;;;;;;5087179;28;20407;-44
2023/12/20 01:55:38;;;;;;;30.33;3.85;;;5.00;99.90;;;;;;5067465;28;20144;-46
2023/12/20 01:58:05;;;;;;;22.95;3.45;;;5.10;99.90;;;;;;5084824;28;20039;-45
2023/12/20 02:00:31;;;;;;;20.15;3.25;;;5.10;99.90;;;;;;5085418;28;20504;-45
2023/12/20 02:03:00;;;;;;;16.35;3.22;;;5.10;99.90;;;;;;5087144;28;20032;-45
2023/12/20 02:05:27;;;;;;;20.63;3.30;;;5.00;99.90;;;;;;5084747;28;20040;-46
2023/12/20 02:07:53;;;;;;;21.40;3.75;;;5.10;99.90;;;;;;5087345;28;20085;-45
2023/12/20 02:10:19;;;;;;;16.05;3.33;;;5.10;99.90;;;;;;5086256;28;20459;-45
2023/12/20 02:12:44;;;;;;;21.20;3.17;;;4.90;99.90;;;;;;5089304;28;20773;-44
2023/12/20 02:15:10;;;;;;;13.70;2.80;;;5.00;99.90;;;;;;5086484;28;20393;-49
2023/12/20 02:17:37;;;;;;;19.70;3.67;;;4.90;99.90;;;;;;5088948;28;20051;-46
2023/12/20 02:20:03;;;;;;;18.70;2.83;;;4.90;99.90;;;;;;5085111;28;20063;-46
2023/12/20 02:22:29;;;;;;;19.05;2.78;;;4.90;99.90;;;;;;5088042;28;20071;-45
2023/12/20 02:24:54;;;;;;;27.92;3.40;;;4.90;99.90;;;;;;5087057;28;20058;-44
2023/12/20 02:27:21;;;;;;;23.40;3.05;;;4.90;99.90;;;;;;5086424;28;20085;-45
2023/12/20 02:29:48;;;;;;;20.58;2.80;;;5.00;99.90;;;;;;5087196;28;20048;-44
2023/12/20 02:32:13;;;;;;;19.92;3.50;;;5.10;99.90;;;;;;5087787;28;20409;-44
2023/12/20 02:34:39;;;;;;;21.85;3.72;;;5.20;99.90;;;;;;5081453;28;20044;-45
2023/12/20 02:37:05;;;;;;;27.55;3.35;;;5.20;99.90;;;;;;5084999;28;20043;-45
2023/12/20 02:39:30;;;;;;;19.15;2.70;;;5.20;99.90;;;;;;5083468;28;20047;-45
2023/12/20 02:41:56;;;;;;;20.10;3.25;;;5.30;99.90;;;;;;5084074;28;20042;-44
2023/12/20 02:44:21;;;;;;;21.42;3.55;;;5.30;99.90;;;;;;5082457;28;20510;-45
2023/12/20 02:46:47;;;;;;;26.98;3.85;;;5.30;99.90;;;;;;5085570;28;20036;-47
2023/12/20 02:49:13;;;;;;;20.30;3.20;;;5.40;99.90;;;;;;5082842;28;20036;-45
2023/12/20 02:51:38;;;;;;;20.00;3.33;;;5.30;99.90;;;;;;5080197;28;20051;-45
2023/12/20 02:54:04;;;;;;;20.10;3.65;;;5.50;99.90;;;;;;5083707;28;20054;-44
2023/12/20 02:56:31;;;;;;;19.60;3.50;;;5.50;99.90;;;;;;5085879;28;20297;-45
2023/12/20 02:58:56;;;;;;;23.38;4.07;;;5.60;99.90;;;;;;5080978;28;20040;-45
2023/12/20 03:01:22;;;;;;;23.30;3.92;;;5.60;99.90;;;;;;5085361;28;20062;-44
2023/12/20 03:03:47;;;;;;;27.08;4.28;;;5.60;99.90;;;;;;5081975;28;20040;-44
2023/12/20 03:06:19;;;;;;;24.20;4.57;;;5.60;99.90;;;;;;5084821;28;20032;-44
2023/12/20 03:08:45;;;;;;;29.60;4.40;;;5.60;99.90;;;;;;5084615;28;20051;-45
2023/12/20 03:11:10;;;;;;;21.98;4.00;;;5.70;99.90;;;;;;5082794;28;20536;-45
2023/12/20 03:13:36;;;;;;;27.38;3.92;;;5.70;99.90;;;;;;5084724;28;20124;-44
2023/12/20 03:16:09;;;;;;;24.88;4.43;;;5.70;99.90;;;;;;5082814;28;20558;-45
2023/12/20 03:18:34;;;;;;;24.15;4.60;;;5.60;99.90;;;;;;5085998;28;20032;-44
2023/12/20 03:21:00;;;;;;;29.73;4.45;;;5.70;99.90;;;;;;5095217;28;20051;-44
2023/12/20 03:23:27;;;;;;;26.02;5.05;;;5.70;99.90;;;;;;5085991;28;21652;-45
2023/12/20 03:25:52;;;;;;;30.17;4.55;;;5.70;99.90;;;;;;5065608;28;20462;-45
2023/12/20 03:28:19;;;;;;;29.10;4.60;;;5.70;99.90;;;;;;5086817;28;20051;-45
2023/12/20 03:30:44;;;;;;;33.67;4.60;;;5.70;99.90;;;;;;5091022;28;20078;-44
2023/12/20 03:33:10;;;;;;;24.90;4.97;;;5.70;99.90;;;;;;5092246;28;20521;-45
2023/12/20 03:35:36;;;;;;;21.77;4.13;;;5.70;99.90;;;;;;5085048;28;20500;-45
2023/12/20 03:38:02;;;;;;;23.42;4.03;;;5.70;99.90;;;;;;5088952;28;20071;-44
2023/12/20 03:40:27;;;;;;;20.85;3.90;;;5.70;99.90;;;;;;5089676;28;22661;-46
2023/12/20 03:42:53;;;;;;;33.47;4.53;;;5.70;99.90;;;;;;5088211;28;20044;-48
2023/12/20 03:45:18;;;;;;;27.83;4.68;;;5.70;99.90;;;;;;5068732;28;20044;-45
2023/12/20 03:47:44;;;;;;;26.20;4.07;;;5.60;99.90;;;;;;5088313;28;21676;-45
2023/12/20 03:50:10;;;;;;;24.27;4.22;;;5.60;99.90;;;;;;5086056;28;20036;-46
2023/12/20 03:52:35;;;;;;;24.20;4.05;;;5.60;99.90;;;;;;5084606;28;20405;-45
2023/12/20 03:55:01;;;;;;;27.05;4.68;;;5.60;99.90;;;;;;5086387;28;20047;-44
2023/12/20 03:57:26;;;;;;;27.88;4.85;;;5.70;99.90;;;;;;5069484;28;20101;-46
2023/12/20 03:59:52;;;;;;;26.70;4.20;;;5.50;99.90;;;;;;5085447;28;20028;-48
2023/12/20 04:02:17;;;;;;;36.92;5.38;;;5.60;99.90;;;;;;5086470;28;20036;-46
2023/12/20 04:04:43;;;;;;;24.17;4.53;;;5.60;99.90;;;;;;5090281;28;20481;-46
2023/12/20 04:07:09;;;;;;;38.70;5.13;;;5.70;99.90;;;;;;5083979;28;20179;-46
2023/12/20 04:09:34;;;;;;;29.15;5.45;;;5.70;99.90;;;;;;5088551;28;20035;-45
2023/12/20 04:12:00;;;;;;;26.02;4.30;;;5.80;99.90;;;;;;5083520;28;20032;-45
2023/12/20 04:14:26;;;;;;;26.98;4.78;;;5.70;99.90;;;;;;5067713;28;20040;-46
2023/12/20 04:16:52;;;;;;;27.30;4.30;;;5.70;99.90;;;;;;5088745;28;20044;-45
2023/12/20 04:19:17;;;;;;;29.50;4.60;;;5.50;99.90;;;;;;5087542;28;20078;-45
2023/12/20 04:21:43;;;;;;;34.05;6.13;;;5.60;99.90;;;;;;5087580;28;20489;-44
2023/12/20 04:24:09;;;;;;;29.65;5.05;;;5.70;99.90;;;;;;5093923;28;20036;-45
2023/12/20 04:26:34;;;;;;;31.50;5.85;;;5.70;99.90;;;;;;5085899;28;20036;-45
2023/12/20 04:29:00;;;;;;;32.78;5.18;;;5.70;99.90;;;;;;5085622;28;20465;-46
2023/12/20 04:31:25;;;;;;;30.02;5.28;;;5.70;99.90;;;;;;5086366;28;20072;-45
2023/12/20 04:33:51;;;;;;;28.35;5.05;;;5.80;99.90;;;;;;5089991;28;20051;-44
2023/12/20 04:36:16;;;;;;;29.58;5.30;;;5.70;99.90;;;;;;5088417;28;20467;-44
2023/12/20 04:38:42;;;;;;;35.60;4.68;;;5.80;99.90;;;;;;5090677;28;20057;-45
2023/12/20 04:41:08;;;;;;;29.70;5.88;;;5.80;99.90;;;;;;5084253;28;20047;-46
2023/12/20 04:43:33;;;;;;;31.02;5.05;;;5.70;99.90;;;;;;5082760;28;20028;-47
2023/12/20 04:45:59;;;;;;;32.50;4.90;;;5.80;99.90;;;;;;5088228;28;20546;-45
2023/12/20 04:48:24;;;;;;;28.58;4.65;;;5.70;99.90;;;;;;5086275;28;20082;-44
2023/12/20 04:50:50;;;;;;;34.10;5.20;;;5.80;99.90;;;;;;5086011;28;20097;-45
2023/12/20 04:53:15;;;;;;;37.30;5.72;;;5.80;99.90;;;;;;5082685;28;20511;-45
2023/12/20 04:55:41;;;;;;;27.85;5.38;;;5.90;99.90;;;;;;5083262;28;20052;-45
2023/12/20 04:58:06;;;;;;;31.73;5.15;;;5.80;99.90;;;;;;5084277;28;20119;-45
2023/12/20 05:00:32;;;;;;;29.02;5.22;;;5.90;99.90;;;;;;5085950;28;20040;-44
2023/12/20 05:02:58;;;;;;;30.25;4.93;;;5.80;99.90;;;;;;5085280;28;20119;-45
2023/12/20 05:05:23;;;;;;;34.03;5.05;;;5.80;99.90;;;;;;5086539;28;20119;-46
2023/12/20 05:07:49;;;;;;;35.63;4.93;;;5.90;99.90;;;;;;5085982;28;20040;-45
2023/12/20 05:10:14;;;;;;;30.25;5.82;;;6.00;99.90;;;;;;5085052;28;20341;-45
2023/12/20 05:12:40;;;;;;;35.42;5.50;;;6.00;99.90;;;;;;5088717;28;20060;-44
2023/12/20 05:15:06;;;;;;;35.55;5.80;;;6.00;99.90;;;;;;5081255;28;20097;-45
2023/12/20 05:17:32;;;;;;;36.65;5.85;;;6.00;99.90;;;;;;5089828;28;20087;-45
2023/12/20 05:19:58;;;;;;;39.20;5.30;;;6.00;99.90;;;;;;5088655;28;20064;-45
2023/12/20 05:22:23;;;;;;;30.83;5.35;;;6.10;99.90;;;;;;5084234;28;20036;-45
2023/12/20 05:24:49;;;;;;;35.13;5.40;;;6.00;99.90;;;;;;5083992;28;20063;-45
2023/12/20 05:27:15;;;;;;;35.17;6.25;;;6.10;99.90;;;;;;5085004;28;20050;-46
2023/12/20 05:29:40;;;;;;;34.85;5.22;;;6.00;99.90;;;;;;5084319;28;20045;-45
2023/12/20 05:32:06;;;;;;;35.78;5.22;;;6.00;99.90;;;;;;5083632;28;20046;-45
2023/12/20 05:34:32;;;;;;;23.80;5.00;;;6.10;99.90;;;;;;5082038;28;20036;-46
2023/12/20 05:36:58;;;;;;;29.88;5.20;;;6.00;99.90;;;;;;5064849;28;20036;-44
2023/12/20 05:39:23;;;;;;;28.30;5.32;;;6.10;99.90;;;;;;5085680;28;20040;-45
2023/12/20 05:41:49;;;;;;;26.70;5.22;;;6.10;99.90;;;;;;5081384;28;20576;-47
2023/12/20 05:44:15;;;;;;;24.10;5.05;;;6.20;99.90;;;;;;5083207;28;20042;-46
2023/12/20 05:46:40;;;;;;;31.88;5.57;;;6.20;99.90;;;;;;5084483;28;20481;-46
2023/12/20 05:49:06;;;;;;;36.13;5.53;;;6.20;99.90;;;;;;5081568;28;20387;-47
2023/12/20 05:51:32;;;;;;;25.42;5.03;;;6.20;99.90;;;;;;5085193;28;20047;-46
2023/12/20 05:53:58;;;;;;;30.95;6.05;;;6.20;99.90;;;;;;5083247;28;20040;-45
2023/12/20 05:56:24;;;;;;;31.30;5.05;;;6.20;99.90;;;;;;5088309;28;20044;-44
2023/12/20 05:58:50;;;;;;;30.52;4.75;;;6.30;99.90;;;;;;5086018;28;20085;-46
2023/12/20 06:01:19;;;;;;;26.73;4.72;;;6.30;99.90;;;;;;5086197;28;20055;-45
2023/12/20 06:03:45;;;;;;;29.00;5.18;;;6.30;99.90;;;;;;5083729;28;20048;-47
2023/12/20 06:06:12;;;;;;;31.13;4.50;;;6.30;99.90;;;;;;5088648;28;20051;-45
2023/12/20 06:08:38;;;;;;;34.10;4.95;;;6.30;99.90;;;;;;5083124;28;20127;-45
2023/12/20 06:11:05;;;;;;;33.95;5.90;;;6.30;99.90;;;;;;5080802;28;20176;-47
2023/12/20 06:13:31;;;;;;;24.00;4.60;;;6.30;99.90;;;;;;5084962;28;20400;-45
2023/12/20 06:15:56;;;;;;;28.02;6.15;;;6.30;99.90;;;;;;5089640;28;20107;-45
2023/12/20 06:18:22;;;;;;;29.33;5.15;;;6.30;99.90;;;;;;5082188;28;20064;-44
2023/12/20 06:20:48;;;;;;;29.73;4.90;;;6.40;99.90;;;;;;5087376;28;20040;-44
2023/12/20 06:23:13;;;;;;;30.77;4.85;;;6.30;99.90;;;;;;5087054;28;20362;-45
2023/12/20 06:25:39;;;;;;;29.67;4.82;;;6.40;99.90;;;;;;5088222;28;20032;-44
2023/12/20 06:28:05;;;;;;;29.92;4.85;;;6.40;99.90;;;;;;5088326;28;20036;-45
2023/12/20 06:30:32;;;;;;;22.92;4.55;;;6.30;99.90;;;;;;5084603;28;20040;-44
2023/12/20 06:32:58;;;;;;;31.80;4.95;;;6.30;99.90;;;;;;5087942;28;20040;-46
2023/12/20 06:35:24;;;;;;;29.40;5.00;;;6.40;99.90;;;;;;5081450;28;20055;-45
2023/12/20 06:37:50;;;;;;;30.65;5.20;;;6.40;99.90;;;;;;5090343;28;20036;-45
2023/12/20 06:40:16;;;;;;;28.02;4.65;;;6.40;99.90;;;;;;5062600;28;20308;-45
2023/12/20 06:42:41;;;;;;;25.40;4.47;;;6.40;99.90;;;;;;5079680;28;20722;-46
2023/12/20 06:45:08;;;;;;;29.73;5.43;;;6.40;99.90;;;;;;5085540;28;20118;-46
2023/12/20 06:47:33;;;;;;;26.35;4.88;;;6.40;99.90;;;;;;5083383;28;20477;-44
2023/12/20 06:49:59;;;;;;;24.52;5.32;;;6.40;99.90;;;;;;5082315;28;20117;-45
2023/12/20 06:52:25;;;;;;;30.67;4.45;;;6.40;99.90;;;;;;5083384;28;20123;-46
2023/12/20 06:54:50;;;;;;;33.45;5.05;;;6.50;99.90;;;;;;5082483;28;20032;-47
2023/12/20 06:57:16;;;;;;;27.30;4.25;;;6.40;99.90;;;;;;5085100;28;20032;-46
2023/12/20 06:59:42;;;;;;;30.58;5.30;;;6.50;99.90;;;;;;5082948;28;20473;-44
2023/12/20 07:02:08;;;;;;;22.90;3.80;;;6.50;99.90;;;;;;5082829;28;20048;-45
2023/12/20 07:04:38;;;;;;;25.15;4.13;;;6.50;99.90;;;;;;5085176;28;20036;-46
2023/12/20 07:07:04;;;;;;;26.95;4.82;;;6.50;99.90;;;;;;5087001;28;20044;-46
2023/12/20 07:09:29;;;;;;;15.95;3.95;;;6.50;99.90;;;;;;5085938;28;20653;-45
2023/12/20 07:11:55;;;;;;;22.42;3.80;;;6.50;99.90;;;;;;5087423;28;20028;-47
2023/12/20 07:14:21;;;;;;;29.52;4.50;;;6.60;99.90;;;;;;5084205;28;20392;-46
2023/12/20 07:16:47;;;;;;;24.10;4.18;;;6.60;99.90;;;;;;5081145;28;20083;-46
2023/12/20 07:19:12;;;;;;;26.63;4.90;;;6.60;99.90;;;;;;5085558;28;20476;-44
2023/12/20 07:21:38;;;;;;;30.65;5.10;;;6.60;99.90;;;;;;5081971;28;20036;-46
2023/12/20 07:24:03;;;;;;;21.35;4.15;;;6.60;99.90;;;;;;5085708;28;20057;-45
2023/12/20 07:26:29;;;;;;;26.27;4.93;;;6.60;99.90;;;;;;5085040;28;20044;-45
2023/12/20 07:28:55;;;;;;;20.75;4.05;;;6.60;99.90;;;;;;5083582;28;20031;-45
2023/12/20 07:31:20;;;;;;;24.45;4.90;;;6.70;99.90;;;;;;5083849;28;20043;-44
2023/12/20 07:33:46;;;;;;;26.08;4.70;;;6.70;99.90;;;;;;5082440;28;20520;-45
2023/12/20 07:36:12;;;;;;;24.73;3.90;;;6.70;99.90;;;;;;5088879;28;20058;-45
2023/12/20 07:38:37;;;;;;;21.70;4.25;;;6.70;99.90;;;;;;5086524;28;20131;-44
2023/12/20 07:41:03;;;;;;;26.90;4.63;;;6.70;99.90;;;;;;5069964;28;20119;-46
2023/12/20 07:43:29;;;;;;;21.48;4.45;;;6.70;99.90;;;;;;5083412;28;20125;-46
2023/12/20 07:45:54;;;;;;;25.40;4.65;;;6.70;99.90;;;;;;5078621;28;20093;-48
2023/12/20 07:48:20;;;;;;;22.67;4.50;;;6.70;99.90;;;;;;5080960;28;20501;-45
2023/12/20 07:50:45;;;;;;;29.88;5.00;;;6.70;99.90;;;;;;5085536;28;20039;-44
2023/12/20 07:53:11;;;;;;;24.05;4.90;;;6.70;99.90;;;;;;5085555;28;20455;-45
2023/12/20 07:55:36;;;;;;;30.27;4.88;;;6.70;99.90;;;;;;5088144;28;20046;-45
2023/12/20 07:58:02;;;;;;;20.20;4.50;;;6.70;99.90;;;;;;5070840;28;20063;-44
2023/12/20 08:00:28;;;;;;;19.08;4.40;;;6.80;99.90;;;;;;5072398;28;20032;-46
2023/12/20 08:02:53;;;;;;;29.67;4.18;;;6.80;99.90;;;;;;5087385;28;20089;-45
2023/12/20 08:05:19;;;;;;;23.15;4.30;;;6.80;99.90;;;;;;5091012;28;20363;-45
2023/12/20 08:07:44;;;;;;;27.48;4.85;;;6.80;99.90;;;;;;5086492;28;20039;-45
2023/12/20 08:10:11;;;;;;;24.02;4.68;;;6.80;99.90;;;;;;5087604;28;20040;-44
2023/12/20 08:12:36;;;;;;;28.25;4.90;;;6.80;99.90;;;;;;5089989;28;20044;-45
2023/12/20 08:15:03;;;;;;;25.17;4.38;;;6.80;99.90;;;;;;5089023;28;20048;-44
2023/12/20 08:17:29;;;;;;;30.75;4.63;;;6.80;99.90;;;;;;5069687;28;20051;-46
2023/12/20 08:19:55;;;;;;;24.38;4.55;;;6.80;99.90;;;;;;5083784;28;20028;-45
2023/12/20 08:22:20;;;;;;;24.10;4.63;;;6.80;99.90;;;;;;5083365;28;20036;-44
2023/12/20 08:24:46;;;;;;;26.50;4.53;;;6.90;99.90;;;;;;5083516;28;20032;-45
2023/12/20 08:27:11;;;;;;;22.80;5.10;;;6.90;99.90;;;;;;5083105;28;20122;-45
2023/12/20 08:29:37;;;;;;;23.90;4.93;;;6.90;99.90;;;;;;5082726;28;20109;-44
2023/12/20 08:32:03;;;;;;;33.92;5.45;;;6.90;99.90;;;;;;5084161;28;20109;-45
2023/12/20 08:34:29;;;;;;;32.90;5.32;;;6.90;99.90;;;;;;5081447;28;20079;-45
2023/12/20 08:36:54;;;;;;;28.63;5.15;;;6.90;99.90;;;;;;5086718;28;20122;-45
2023/12/20 08:39:20;;;;;;;29.85;4.97;;;7.00;99.90;;;;;;5081519;28;20051;-44
2023/12/20 08:41:46;;;;;;;30.52;5.25;;;7.00;99.90;;;;;;5081444;28;20604;-47
2023/12/20 08:44:11;;;;;;;25.60;5.10;;;7.00;99.90;;;;;;5082730;28;20036;-45
2023/12/20 08:46:37;;;;;;;36.90;5.50;;;7.00;99.90;;;;;;5082661;28;20036;-47
2023/12/20 08:49:02;;;;;;;27.20;4.75;;;7.00;99.90;;;;;;5081361;28;20542;-45
2023/12/20 08:51:29;;;;;;;24.52;4.38;;;7.10;99.90;;;;;;5082966;28;20139;-47
2023/12/20 08:53:54;;;;;;;29.95;5.60;;;7.10;99.90;;;;;;5083069;28;20535;-45
2023/12/20 08:56:20;;;;;;;26.73;5.25;;;7.10;99.90;;;;;;5080159;28;20044;-46
2023/12/20 08:58:46;;;;;;;34.72;6.00;;;7.10;99.90;;;;;;5079086;28;20044;-47
2023/12/20 09:01:13;;;;;;;25.33;4.63;;;7.10;99.90;;;;;;5084026;28;20047;-46
2023/12/20 09:03:39;;;;;;;28.90;5.40;;;7.10;99.90;;;;;;5083221;28;20775;-45
2023/12/20 09:06:05;;;;;;;24.73;5.72;;;7.20;99.90;;;;;;5083855;28;20319;-46
2023/12/20 09:08:31;;;;;;;35.03;5.28;;;7.20;99.90;;;;;;5084234;28;20126;-46
2023/12/20 09:10:56;;;;;;;29.35;4.72;;;7.20;99.90;;;;;;5081726;28;20405;-45
2023/12/20 09:13:27;;;;;;;24.75;4.65;;;7.30;99.90;;;;;;5081269;28;20032;-46
2023/12/20 09:15:56;;;;;;;34.53;5.38;;;7.30;99.90;;;;;;5083311;28;20040;-46
2023/12/20 09:18:22;;;;;;;30.13;4.70;;;7.40;99.90;;;;;;5089196;28;20070;-46
2023/12/20 09:20:47;;;;;;;22.90;5.00;;;7.40;99.90;;;;;;5087493;28;20083;-46
2023/12/20 09:23:13;;;;;;;21.73;4.63;;;7.50;99.90;;;;;;5087761;28;20055;-47
2023/12/20 09:25:39;;;;;;;28.50;4.75;;;7.50;99.90;;;;;;5085599;28;20032;-46
2023/12/20 09:28:04;;;;;;;30.00;4.65;;;7.50;99.90;;;;;;5089838;28;20066;-45
2023/12/20 09:30:31;;;;;;;24.60;4.43;;;7.50;99.90;;;;;;5091559;28;20039;-47
2023/12/20 09:32:57;;;;;;;26.50;4.95;;;7.50;99.90;;;;;;5091997;28;20063;-47
2023/12/20 09:35:23;;;;;;;22.38;4.05;;;7.50;99.90;;;;;;5090805;28;20044;-45
2023/12/20 09:37:49;;;;;;;22.13;4.53;;;7.50;99.90;;;;;;5092298;28;20040;-45
2023/12/20 09:40:18;;;;;;;22.95;4.63;;;7.60;99.90;;;;;;5091090;28;20040;-45
2023/12/20 09:42:57;;;;;;;24.33;4.38;;;7.60;99.90;;;;;;5090703;28;20040;-45
2023/12/20 09:45:22;;;;;;;25.50;4.45;;;7.60;99.90;;;;;;5082422;28;20503;-46
2023/12/20 09:47:53;;;;;;;23.75;4.32;;;7.60;99.90;;;;;;5079012;28;20135;-45
2023/12/20 09:50:21;;;;;;;28.58;5.10;;;7.70;99.90;;;;;;5086691;28;20051;-44
2023/12/20 09:52:50;;;;;;;28.23;4.72;;;7.70;99.90;;;;;;5090858;28;20040;-45
2023/12/20 09:55:17;;;;;;;21.70;5.68;;;7.70;99.90;;;;;;5088038;28;20051;-45
2023/12/20 09:57:43;;;;;;;24.13;4.70;;;7.90;99.90;;;;;;5085568;28;20174;-45
2023/12/20 10:00:09;;;;;;;24.40;4.35;;;8.00;99.90;;;;;;5087964;28;20566;-46
2023/12/20 10:02:41;;;;;;;21.40;4.07;;;8.00;99.90;;;;;;5090159;28;20039;-46
2023/12/20 10:05:10;;;;;;;30.25;4.90;;;8.00;99.90;;;;;;5085901;28;20048;-46
2023/12/20 10:07:36;;;;;;;24.05;4.57;;;7.90;99.90;;;;;;5082394;28;20482;-48
2023/12/20 10:10:02;;;;;;;20.75;4.00;;;8.00;99.90;;;;;;5085805;28;20039;-48
2023/12/20 10:12:27;;;;;;;21.52;4.93;;;8.00;99.90;;;;;;5081001;28;20400;-46
2023/12/20 10:14:53;;;;;;;24.05;4.63;;;8.10;99.90;;;;;;5086090;28;20040;-48
2023/12/20 10:17:21;;;;;;;22.00;4.53;;;8.10;99.90;;;;;;5085901;28;20058;-45
2023/12/20 10:19:46;;;;;;;26.70;4.50;;;8.10;99.90;;;;;;5089352;28;20036;-45
2023/12/20 10:22:12;;;;;;;21.98;5.03;;;8.10;99.90;;;;;;5086736;28;20520;-45
2023/12/20 10:24:39;;;;;;;27.50;4.60;;;8.00;99.90;;;;;;5080702;28;20043;-45
2023/12/20 10:27:06;;;;;;;18.97;3.30;;;7.90;99.90;;;;;;5081704;28;20044;-46
2023/12/20 10:29:38;;;;;;;16.60;3.10;;;7.80;99.90;;;;;;5084204;28;20043;-45
2023/12/20 10:32:24;;;;;;;15.95;3.03;;;7.70;99.90;;;;;;5085157;28;20458;-45
2023/12/20 10:34:51;;;;;;;14.57;2.50;;;7.60;99.90;;;;;;5065522;28;20048;-45
2023/12/20 10:37:17;;;;;;;13.32;2.33;;;7.40;99.90;;;;;;5079502;28;20092;-47
2023/12/20 10:39:43;;;;;;;17.00;2.45;;;7.40;99.90;;;;;;5084977;28;20075;-45
2023/12/20 10:42:13;;;;;;;12.88;2.05;;;7.30;99.90;;;;;;5085141;28;20493;-45
2023/12/20 10:44:39;;;;;;;9.57;1.67;;;7.20;99.90;;;;;;5078402;28;20055;-47
2023/12/20 10:47:06;;;;;;;8.30;2.10;;;7.10;99.90;;;;;;5080215;28;20386;-47
2023/12/20 10:49:35;;;;;;;9.82;1.77;;;7.00;99.90;;;;;;5079784;28;20028;-45
2023/12/20 10:52:03;;;;;;;13.75;2.25;;;7.00;99.90;;;;;;5083099;28;20438;-44
2023/12/20 10:54:29;;;;;;;12.10;2.30;;;6.90;99.90;;;;;;5079768;28;20260;-45
2023/12/20 10:56:57;;;;;;;13.35;1.98;;;7.00;99.90;;;;;;5077153;28;20108;-45
2023/12/20 10:59:24;;;;;;;12.27;2.15;;;6.90;99.90;;;;;;5081488;28;20044;-44
2023/12/20 11:01:50;;;;;;;10.90;1.77;;;6.90;99.90;;;;;;5084081;28;20052;-45
2023/12/20 11:04:23;;;;;;;9.63;1.98;;;6.90;99.90;;;;;;5081716;28;20040;-45
2023/12/20 11:06:56;;;;;;;10.50;1.85;;;6.90;99.90;;;;;;5086351;28;20071;-48
2023/12/20 11:09:38;;;;;;;9.82;2.00;;;6.90;99.90;;;;;;5079664;28;20436;-44
2023/12/20 11:12:16;;;;;;;9.95;1.95;;;6.90;99.90;;;;;;5062272;28;20089;-46
2023/12/20 11:14:51;;;;;;;9.52;1.73;;;6.90;99.90;;;;;;5087555;28;20053;-43
2023/12/20 11:17:18;;;;;;;11.90;2.20;;;6.90;99.90;;;;;;5086925;28;20072;-44
2023/12/20 11:20:04;;;;;;;6.18;1.77;;;6.90;99.90;;;;;;5086130;28;20174;-44
2023/12/20 11:22:33;;;;;;;9.63;1.80;;;6.80;99.90;;;;;;5086055;28;20071;-44
2023/12/20 11:25:09;;;;;;;11.40;2.35;;;;;;;;;;5083078;28;20040;-44
2023/12/20 11:27:36;;;;;;;7.40;1.67;;;6.80;99.90;;;;;;5086266;28;20051;-45
2023/12/20 11:30:06;;;;;;;10.57;2.08;;;6.80;99.90;;;;;;5082483;28;20514;-45
2023/12/20 11:32:34;;;;;;;6.65;1.25;;;6.80;99.90;;;;;;5082139;28;20546;-45
2023/12/20 11:35:09;;;;;;;;;;;6.80;99.90;;;;;;5087393;28;20115;-46
2023/12/20 11:37:38;;;;;;;11.15;1.83;;;6.80;99.90;;;;;;5088156;28;19928;-44
2023/12/20 11:40:11;;;;;;;11.73;1.98;;;6.80;99.90;;;;;;5095144;28;20043;-44
2023/12/20 11:42:40;;;;;;;9.80;1.52;;;6.80;99.90;;;;;;5093763;28;20127;-44
2023/12/20 11:45:22;;;;;;;7.75;2.00;;;6.90;99.90;;;;;;5089275;28;20032;-45
2023/12/20 11:47:55;;;;;;;13.73;1.63;;;6.90;99.90;;;;;;5090422;28;20442;-45
2023/12/20 11:50:22;;;;;;;11.80;1.80;;;6.90;99.90;;;;;;5089638;28;20728;-45
2023/12/20 11:52:48;;;;;;;8.93;1.90;;;6.90;99.90;;;;;;5090185;28;20123;-45
2023/12/20 11:55:14;;;;;;;13.30;1.70;;;7.00;99.90;;;;;;5091584;28;20063;-44
2023/12/20 11:57:40;;;;;;;9.50;1.98;;;7.00;99.90;;;;;;5089790;28;20072;-46
2023/12/20 12:00:06;;;;;;;10.85;2.03;;;7.00;99.90;;;;;;5090835;28;20036;-45
2023/12/20 12:02:32;;;;;;;15.57;2.85;;;7.00;99.90;;;;;;5091113;28;20054;-44
2023/12/20 12:04:59;;;;;;;10.52;2.13;;;7.00;99.90;;;;;;5090319;28;20461;-45
2023/12/20 12:07:25;;;;;;;13.20;1.90;;;7.00;99.90;;;;;;5089888;28;20446;-45
2023/12/20 12:09:51;;;;;;;8.98;1.60;;;6.90;99.90;;;;;;5092721;28;20055;-45
2023/12/20 12:12:19;;;;;;;11.10;2.03;;;6.90;99.90;;;;;;5093751;28;20085;-49
2023/12/20 12:14:45;;;;;;;10.32;1.95;;;7.00;99.90;;;;;;5092575;28;20057;-48
2023/12/20 12:17:14;;;;;;;11.73;1.85;;;6.90;99.90;;;;;;5093390;28;20082;-46
2023/12/20 12:19:41;;;;;;;10.75;2.08;;;6.90;99.90;;;;;;5094246;28;20347;-46
2023/12/20 12:22:13;;;;;;;11.32;1.73;;;7.00;99.90;;;;;;5094032;28;20036;-45
2023/12/20 12:24:43;;;;;;;9.63;1.95;;;7.00;99.90;;;;;;5095488;28;20137;-44
2023/12/20 12:27:10;;;;;;;10.70;1.88;;;7.00;99.90;;;;;;5095078;28;20085;-45
2023/12/20 12:29:36;;;;;;;10.10;1.65;;;7.00;99.90;;;;;;5094703;28;20040;-44
2023/12/20 12:32:09;;;;;;;9.50;2.00;;;7.00;99.90;;;;;;5081355;28;20040;-45
2023/12/20 12:34:35;;;;;;;8.05;1.70;;;7.00;99.90;;;;;;5073681;28;20048;-45
2023/12/20 12:37:03;;;;;;;9.80;1.58;;;7.00;99.90;;;;;;5093725;28;20040;-45
2023/12/20 12:39:29;;;;;;;12.75;1.95;;;6.90;99.90;;;;;;5083269;28;20102;-45
2023/12/20 12:41:55;;;;;;;10.15;2.00;;;6.90;99.90;;;;;;5073767;28;20124;-45
2023/12/20 12:44:23;;;;;;;7.00;2.00;;;6.90;99.90;;;;;;5073871;28;20135;-45